createdAt,value
2023-03-23T00:01:12.496Z,74.51
2023-03-23T00:05:08.567Z,74.49
2023-03-23T00:10:08.939Z,74.5
2023-03-23T00:15:08.112Z,74.5
2023-03-23T00:20:08.130Z,74.51
2023-03-23T00:25:08.307Z,74.51
2023-03-23T00:30:08.505Z,74.5
2023-03-23T00:35:08.567Z,74.51
2023-03-23T00:40:08.632Z,74.5
2023-03-23T00:45:08.657Z,74.5
2023-03-23T00:50:08.718Z,74.5
2023-03-23T00:55:08.798Z,74.52
2023-03-23T01:00:08.888Z,74.53
2023-03-23T01:05:08.984Z,74.52
2023-03-23T01:10:08.072Z,74.53
2023-03-23T01:15:08.136Z,74.53
2023-03-23T01:20:08.218Z,74.51
2023-03-23T01:25:08.254Z,74.52
2023-03-23T01:30:08.608Z,74.52
2023-03-23T01:35:08.641Z,74.52
2023-03-23T01:40:08.720Z,74.51
2023-03-23T01:45:18.958Z,74.49
2023-03-23T01:50:08.065Z,74.5
2023-03-23T01:55:08.131Z,74.5
2023-03-23T02:00:08.714Z,74.5
2023-03-23T02:05:08.903Z,74.49
2023-03-23T02:10:09.012Z,74.49
2023-03-23T02:15:08.152Z,74.49
2023-03-23T02:20:08.211Z,74.49
2023-03-23T02:25:08.327Z,74.46
2023-03-23T02:30:08.465Z,74.5
2023-03-23T02:35:08.685Z,74.48
2023-03-23T02:40:08.781Z,74.48
2023-03-23T02:45:08.852Z,74.48
2023-03-23T02:50:08.907Z,74.48
2023-03-23T02:55:08.947Z,74.48
2023-03-23T03:00:08.024Z,74.48
2023-03-23T03:05:08.069Z,74.5
2023-03-23T03:10:08.291Z,74.5
2023-03-23T03:15:08.340Z,74.52
2023-03-23T03:20:08.588Z,74.5
2023-03-23T03:25:18.212Z,74.5
2023-03-23T03:30:08.862Z,74.48
2023-03-23T03:35:08.926Z,74.5
2023-03-23T03:40:09.065Z,74.49
2023-03-23T03:45:08.553Z,74.5
2023-03-23T03:50:08.333Z,74.5
2023-03-23T03:55:08.328Z,74.5
2023-03-23T04:00:08.605Z,74.49
2023-03-23T04:05:08.904Z,74.48
2023-03-23T04:10:08.028Z,74.5
2023-03-23T04:15:08.529Z,74.5
2023-03-23T04:20:08.124Z,74.48
2023-03-23T04:25:08.154Z,74.47
2023-03-23T04:30:08.236Z,74.47
2023-03-23T04:35:12.427Z,74.47
2023-03-23T04:40:08.203Z,74.46
2023-03-23T04:45:08.222Z,74.45
2023-03-23T04:50:08.263Z,74.47
2023-03-23T04:55:08.297Z,74.46
2023-03-23T05:00:08.342Z,74.46
2023-03-23T05:05:02.543Z,74.47
2023-03-23T05:10:02.726Z,74.46
2023-03-23T05:15:03.008Z,74.46
2023-03-23T05:20:02.288Z,74.46
2023-03-23T05:25:02.580Z,74.48
2023-03-23T05:30:02.857Z,74.46
2023-03-23T05:35:03.117Z,74.46
2023-03-23T05:40:02.399Z,74.47
2023-03-23T05:45:02.780Z,74.44
2023-03-23T05:50:02.992Z,74.44
2023-03-23T05:55:02.171Z,74.46
2023-03-23T06:00:02.403Z,74.46
2023-03-23T06:05:02.647Z,74.47
2023-03-23T06:10:02.830Z,74.48
2023-03-23T06:15:03.207Z,74.49
2023-03-23T06:20:02.436Z,74.46
2023-03-23T06:25:02.854Z,74.49
2023-03-23T06:30:03.217Z,74.49
2023-03-23T06:35:02.545Z,74.47
2023-03-23T06:40:02.806Z,74.49
2023-03-23T06:45:02.990Z,74.48
2023-03-23T06:50:02.189Z,74.49
2023-03-23T06:55:02.429Z,74.49
2023-03-23T07:00:02.578Z,74.49
2023-03-23T07:05:02.764Z,74.48
2023-03-23T07:10:02.956Z,74.48
2023-03-23T07:15:02.167Z,74.45
2023-03-23T07:20:02.367Z,74.45
2023-03-23T07:25:02.507Z,74.44
2023-03-23T07:30:02.833Z,74.44
2023-03-23T07:35:03.162Z,74.42
2023-03-23T07:40:02.547Z,74.43
2023-03-23T07:45:02.844Z,74.42
2023-03-23T07:50:03.045Z,74.42
2023-03-23T07:55:02.387Z,74.41
2023-03-23T08:00:02.639Z,74.41
2023-03-23T08:05:03.007Z,74.4
2023-03-23T08:10:02.296Z,74.4
2023-03-23T08:15:02.550Z,74.41
2023-03-23T08:20:09.469Z,74.41
2023-03-23T08:25:03.736Z,74.4
2023-03-23T08:30:02.977Z,74.4
2023-03-23T08:35:02.260Z,74.41
2023-03-23T08:40:02.632Z,74.41
2023-03-23T08:45:02.948Z,74.39
2023-03-23T08:50:02.140Z,74.4
2023-03-23T08:55:02.285Z,74.44
2023-03-23T09:00:02.400Z,74.46
2023-03-23T09:05:02.563Z,74.46
2023-03-23T09:10:02.853Z,74.46
2023-03-23T09:15:03.103Z,74.59
2023-03-23T09:20:02.390Z,74.62
2023-03-23T09:25:02.601Z,74.65
2023-03-23T09:30:02.781Z,74.68
2023-03-23T09:35:02.969Z,74.68
2023-03-23T09:40:06.796Z,74.68
2023-03-23T09:45:02.311Z,74.69
2023-03-23T09:50:02.479Z,74.69
2023-03-23T09:55:02.618Z,74.66
2023-03-23T10:00:04.907Z,74.67
2023-03-23T10:05:03.093Z,74.64
2023-03-23T10:10:02.334Z,74.64
2023-03-23T10:15:02.547Z,74.61
2023-03-23T10:20:02.741Z,74.59
2023-03-23T10:25:02.929Z,74.58
2023-03-23T10:30:02.172Z,74.55
2023-03-23T10:35:02.462Z,74.51
2023-03-23T10:40:02.803Z,74.51
2023-03-23T10:45:02.981Z,74.51
2023-03-23T10:50:02.383Z,74.47
2023-03-23T10:55:02.595Z,74.47
2023-03-23T11:00:02.813Z,74.42
2023-03-23T11:05:09.156Z,74.41
2023-03-23T11:10:03.066Z,74.39
2023-03-23T11:15:02.321Z,74.39
2023-03-23T11:20:02.510Z,74.34
2023-03-23T11:25:02.692Z,74.34
2023-03-23T11:30:02.848Z,74.23
2023-03-23T11:35:15.559Z,74.17
2023-03-23T11:40:02.149Z,74.11
2023-03-23T11:45:02.574Z,74.05
2023-03-23T11:50:02.717Z,74.02
2023-03-23T11:55:02.845Z,73.95
2023-03-23T12:00:03.242Z,73.9
2023-03-23T12:05:02.414Z,73.82
2023-03-23T12:10:06.400Z,73.77
2023-03-23T12:15:02.763Z,73.69
2023-03-23T12:20:02.964Z,73.62
2023-03-23T12:25:02.151Z,73.56
2023-03-23T12:30:02.322Z,73.56
2023-03-23T12:35:02.562Z,73.56
2023-03-23T12:40:02.777Z,73.36
2023-03-23T12:45:12.922Z,73.32
2023-03-23T12:50:03.110Z,73.3
2023-03-23T12:55:02.295Z,73.29
2023-03-23T13:00:02.509Z,73.28
2023-03-23T13:05:02.776Z,73.26
2023-03-23T13:10:03.817Z,73.26
2023-03-23T13:15:02.578Z,73.25
2023-03-23T13:20:02.847Z,73.24
2023-03-23T13:25:03.034Z,73.21
2023-03-23T13:30:02.264Z,73.16
2023-03-23T13:35:03.699Z,73.11
2023-03-23T13:40:12.988Z,73.08
2023-03-23T13:45:02.436Z,73.04
2023-03-23T13:50:02.593Z,73.03
2023-03-23T13:55:02.786Z,73.02
2023-03-23T14:00:02.989Z,72.96
2023-03-23T14:05:02.148Z,72.94
2023-03-23T14:10:02.322Z,72.94
2023-03-23T14:15:02.506Z,72.94
2023-03-23T14:20:02.704Z,72.94
2023-03-23T14:25:02.816Z,72.95
2023-03-23T14:30:03.069Z,72.98
2023-03-23T14:35:02.291Z,73.0
2023-03-23T14:40:02.444Z,73.01
2023-03-23T14:45:02.615Z,73.03
2023-03-23T14:50:02.814Z,73.04
2023-03-23T14:55:03.036Z,73.07
2023-03-23T15:00:02.246Z,73.08
2023-03-23T15:05:02.614Z,73.11
2023-03-23T15:10:02.803Z,73.04
2023-03-23T15:15:03.017Z,73.06
2023-03-23T15:20:09.243Z,73.18
2023-03-23T15:25:11.766Z,73.32
2023-03-23T15:30:02.909Z,73.43
2023-03-23T15:35:04.478Z,73.58
2023-03-23T15:40:02.957Z,73.71
2023-03-23T15:45:02.123Z,73.77
2023-03-23T15:50:02.433Z,73.77
2023-03-23T15:55:02.699Z,73.77
2023-03-23T16:00:02.970Z,73.77
2023-03-23T16:05:02.164Z,74.02
2023-03-23T16:10:02.425Z,74.09
2023-03-23T16:15:02.617Z,74.11
2023-03-23T16:20:02.950Z,74.16
2023-03-23T16:25:02.205Z,74.19
2023-03-23T16:30:04.287Z,74.23
2023-03-23T16:35:02.815Z,74.24
2023-03-23T16:40:02.932Z,74.28
2023-03-23T16:45:02.037Z,74.29
2023-03-23T16:50:02.147Z,74.29
2023-03-23T16:55:02.268Z,74.33
2023-03-23T17:00:02.777Z,74.34
2023-03-23T17:05:02.909Z,74.36
2023-03-23T17:10:02.989Z,74.36
2023-03-23T17:15:02.254Z,74.38
2023-03-23T17:20:02.671Z,74.38
2023-03-23T17:25:02.839Z,74.39
2023-03-23T17:30:03.048Z,74.39
2023-03-23T17:35:02.281Z,74.43
2023-03-23T17:40:02.578Z,74.43
2023-03-23T17:45:03.572Z,74.43
2023-03-23T17:50:11.380Z,74.43
2023-03-23T17:55:03.307Z,74.43
2023-03-23T18:00:02.843Z,74.43
2023-03-23T18:05:03.281Z,74.53
2023-03-23T18:10:02.515Z,74.54
2023-03-23T18:15:02.827Z,74.56
2023-03-23T18:20:03.103Z,74.56
2023-03-23T18:25:02.308Z,74.6
2023-03-23T18:30:02.778Z,74.62
2023-03-23T18:35:03.236Z,74.64
2023-03-23T18:40:03.526Z,74.65
2023-03-23T18:45:02.885Z,74.67
2023-03-23T18:50:02.722Z,74.68
2023-03-23T18:55:03.118Z,74.67
2023-03-23T19:00:02.426Z,74.69
2023-03-23T19:05:02.836Z,74.71
2023-03-23T19:10:03.448Z,74.72
2023-03-23T19:15:03.506Z,74.72
2023-03-23T19:20:03.036Z,74.72
2023-03-23T19:25:02.400Z,74.73
2023-03-23T19:30:02.644Z,74.75
2023-03-23T19:35:04.022Z,74.75
2023-03-23T19:40:12.638Z,74.76
2023-03-23T19:45:03.449Z,74.76
2023-03-23T19:50:02.703Z,74.75
2023-03-23T19:55:03.874Z,74.74
2023-03-23T20:00:03.910Z,74.74
2023-03-23T20:05:03.275Z,74.74
2023-03-23T20:10:02.959Z,74.74
2023-03-23T20:15:02.198Z,74.77
2023-03-23T20:20:02.469Z,74.74
2023-03-23T20:25:02.615Z,74.74
2023-03-23T20:30:04.249Z,74.72
2023-03-23T20:35:05.737Z,74.73
2023-03-23T20:40:07.663Z,74.72
2023-03-23T20:45:04.212Z,74.74
2023-03-23T20:50:02.916Z,74.73
2023-03-23T20:55:02.842Z,74.75
2023-03-23T21:00:03.074Z,74.73
2023-03-23T21:05:03.565Z,74.73
2023-03-23T21:10:02.832Z,74.73
2023-03-23T21:15:03.259Z,74.73
2023-03-23T21:20:02.584Z,74.71
2023-03-23T21:25:03.073Z,74.71
2023-03-23T21:30:02.629Z,74.7
2023-03-23T21:35:02.871Z,74.7
2023-03-23T21:40:03.071Z,74.71
2023-03-23T21:45:02.305Z,74.69
2023-03-23T21:50:02.472Z,74.72
2023-03-23T21:55:03.275Z,74.71
2023-03-23T22:00:02.338Z,74.72
2023-03-23T22:05:15.365Z,74.7
2023-03-23T22:10:08.434Z,74.73
2023-03-23T22:15:08.508Z,74.73
2023-03-23T22:20:08.599Z,74.74
2023-03-23T22:25:08.633Z,74.77
2023-03-23T22:30:08.748Z,74.76
2023-03-23T22:35:08.820Z,74.76
2023-03-23T22:40:08.863Z,74.76
2023-03-23T22:45:08.906Z,74.79
2023-03-23T22:50:08.944Z,74.8
2023-03-23T22:55:08.066Z,74.8
2023-03-23T23:00:08.140Z,74.79
2023-03-23T23:05:08.186Z,74.8
2023-03-23T23:10:08.259Z,74.82
2023-03-23T23:15:08.296Z,74.82
2023-03-23T23:20:08.377Z,74.84
2023-03-23T23:25:08.540Z,74.84
2023-03-23T23:30:08.570Z,74.85
2023-03-23T23:35:08.693Z,74.87
2023-03-23T23:40:08.786Z,74.86
2023-03-23T23:45:08.899Z,74.87
2023-03-23T23:50:08.968Z,74.86
2023-03-23T23:55:08.010Z,74.89
